sensor_id;sensor_type;location;lat;lon;timestamp;temperature;humidity
66013;DHT22;52783;50.502;8.190;2024-03-07T00:01:03;5.70;99.90
66013;DHT22;52783;50.502;8.190;2024-03-07T00:03:29;5.70;99.90
66013;DHT22;52783;50.502;8.190;2024-03-07T00:05:54;5.70;99.90
66013;DHT22;52783;50.502;8.190;2024-03-07T00:08:20;5.70;99.90
66013;DHT22;52783;50.502;8.190;2024-03-07T00:10:45;5.80;99.90
66013;DHT22;52783;50.502;8.190;2024-03-07T00:13:11;5.80;99.90
66013;DHT22;52783;50.502;8.190;2024-03-07T00:15:38;5.90;99.90
66013;DHT22;52783;50.502;8.190;2024-03-07T00:18:05;5.90;99.90
66013;DHT22;52783;50.502;8.190;2024-03-07T00:20:31;6.00;99.90
66013;DHT22;52783;50.502;8.190;2024-03-07T00:22:56;6.00;99.90
66013;DHT22;52783;50.502;8.190;2024-03-07T00:25:22;6.00;99.90
66013;DHT22;52783;50.502;8.190;2024-03-07T00:27:48;6.10;99.90
66013;DHT22;52783;50.502;8.190;2024-03-07T00:30:13;6.10;99.90
66013;DHT22;52783;50.502;8.190;2024-03-07T00:32:39;6.10;99.90
66013;DHT22;52783;50.502;8.190;2024-03-07T00:35:08;6.20;99.90
66013;DHT22;52783;50.502;8.190;2024-03-07T00:37:34;6.20;99.90
66013;DHT22;52783;50.502;8.190;2024-03-07T00:40:00;6.20;99.90
66013;DHT22;52783;50.502;8.190;2024-03-07T00:42:26;6.30;99.90
66013;DHT22;52783;50.502;8.190;2024-03-07T00:44:52;6.30;99.90
66013;DHT22;52783;50.502;8.190;2024-03-07T00:47:18;6.30;99.90
66013;DHT22;52783;50.502;8.190;2024-03-07T00:49:44;6.30;99.90
66013;DHT22;52783;50.502;8.190;2024-03-07T00:52:12;6.30;99.90
66013;DHT22;52783;50.502;8.190;2024-03-07T00:54:37;6.20;99.90
66013;DHT22;52783;50.502;8.190;2024-03-07T00:57:03;6.30;99.90
66013;DHT22;52783;50.502;8.190;2024-03-07T00:59:29;6.20;99.90
66013;DHT22;52783;50.502;8.190;2024-03-07T01:01:55;6.20;99.90
66013;DHT22;52783;50.502;8.190;2024-03-07T01:04:20;6.20;99.90
66013;DHT22;52783;50.502;8.190;2024-03-07T01:06:47;6.10;99.90
66013;DHT22;52783;50.502;8.190;2024-03-07T01:09:13;6.00;99.90
66013;DHT22;52783;50.502;8.190;2024-03-07T01:11:44;6.00;99.90
66013;DHT22;52783;50.502;8.190;2024-03-07T01:14:13;5.90;99.90
66013;DHT22;52783;50.502;8.190;2024-03-07T01:16:39;5.90;99.90
66013;DHT22;52783;50.502;8.190;2024-03-07T01:19:04;5.80;99.90
66013;DHT22;52783;50.502;8.190;2024-03-07T01:21:32;5.80;99.90
66013;DHT22;52783;50.502;8.190;2024-03-07T01:23:58;5.70;99.90
66013;DHT22;52783;50.502;8.190;2024-03-07T01:26:26;5.50;99.90
66013;DHT22;52783;50.502;8.190;2024-03-07T01:28:51;5.50;99.90
66013;DHT22;52783;50.502;8.190;2024-03-07T01:31:17;5.50;99.90
66013;DHT22;52783;50.502;8.190;2024-03-07T01:33:43;5.50;99.90
66013;DHT22;52783;50.502;8.190;2024-03-07T01:36:09;5.50;99.90
66013;DHT22;52783;50.502;8.190;2024-03-07T01:38:36;5.40;99.90
66013;DHT22;52783;50.502;8.190;2024-03-07T01:41:01;5.40;99.90
66013;DHT22;52783;50.502;8.190;2024-03-07T01:43:27;5.30;99.90
66013;DHT22;52783;50.502;8.190;2024-03-07T01:45:54;5.20;99.90
66013;DHT22;52783;50.502;8.190;2024-03-07T01:48:28;5.20;99.90
66013;DHT22;52783;50.502;8.190;2024-03-07T01:50:55;5.10;99.90
66013;DHT22;52783;50.502;8.190;2024-03-07T01:53:22;5.10;99.90
66013;DHT22;52783;50.502;8.190;2024-03-07T01:55:49;5.10;99.90
66013;DHT22;52783;50.502;8.190;2024-03-07T01:58:18;5.10;99.90
66013;DHT22;52783;50.502;8.190;2024-03-07T02:00:44;5.00;99.90
66013;DHT22;52783;50.502;8.190;2024-03-07T02:03:09;4.90;99.90
66013;DHT22;52783;50.502;8.190;2024-03-07T02:05:35;5.00;99.90
66013;DHT22;52783;50.502;8.190;2024-03-07T02:08:01;5.00;99.90
66013;DHT22;52783;50.502;8.190;2024-03-07T02:10:27;4.90;99.90
66013;DHT22;52783;50.502;8.190;2024-03-07T02:12:53;4.90;99.90
66013;DHT22;52783;50.502;8.190;2024-03-07T02:15:18;4.80;99.90
66013;DHT22;52783;50.502;8.190;2024-03-07T02:17:45;4.80;99.90
66013;DHT22;52783;50.502;8.190;2024-03-07T02:20:11;4.80;99.90
66013;DHT22;52783;50.502;8.190;2024-03-07T02:22:37;4.80;99.90
66013;DHT22;52783;50.502;8.190;2024-03-07T02:25:03;4.70;99.90
66013;DHT22;52783;50.502;8.190;2024-03-07T02:27:28;4.70;99.90
66013;DHT22;52783;50.502;8.190;2024-03-07T02:29:54;4.70;99.90
66013;DHT22;52783;50.502;8.190;2024-03-07T02:32:20;4.70;99.90
66013;DHT22;52783;50.502;8.190;2024-03-07T02:34:46;4.60;99.90
66013;DHT22;52783;50.502;8.190;2024-03-07T02:37:12;4.70;99.90
66013;DHT22;52783;50.502;8.190;2024-03-07T02:39:38;4.70;99.90
66013;DHT22;52783;50.502;8.190;2024-03-07T02:42:04;4.70;99.90
66013;DHT22;52783;50.502;8.190;2024-03-07T02:44:30;4.70;99.90
66013;DHT22;52783;50.502;8.190;2024-03-07T02:46:57;4.60;99.90
66013;DHT22;52783;50.502;8.190;2024-03-07T02:49:23;4.70;99.90
66013;DHT22;52783;50.502;8.190;2024-03-07T02:51:48;4.60;99.90
66013;DHT22;52783;50.502;8.190;2024-03-07T02:54:14;4.60;99.90
66013;DHT22;52783;50.502;8.190;2024-03-07T02:56:40;4.60;99.90
66013;DHT22;52783;50.502;8.190;2024-03-07T02:59:05;4.60;99.90
66013;DHT22;52783;50.502;8.190;2024-03-07T03:01:32;4.60;99.90
66013;DHT22;52783;50.502;8.190;2024-03-07T03:03:57;4.60;99.90
66013;DHT22;52783;50.502;8.190;2024-03-07T03:06:23;4.60;99.90
66013;DHT22;52783;50.502;8.190;2024-03-07T03:08:49;4.50;99.90
66013;DHT22;52783;50.502;8.190;2024-03-07T03:11:15;4.50;99.90
66013;DHT22;52783;50.502;8.190;2024-03-07T03:13:41;4.50;99.90
66013;DHT22;52783;50.502;8.190;2024-03-07T03:16:06;4.60;99.90
66013;DHT22;52783;50.502;8.190;2024-03-07T03:18:33;4.60;99.90
66013;DHT22;52783;50.502;8.190;2024-03-07T03:21:02;4.60;99.90
66013;DHT22;52783;50.502;8.190;2024-03-07T03:23:28;4.60;99.90
66013;DHT22;52783;50.502;8.190;2024-03-07T03:25:54;4.60;99.90
66013;DHT22;52783;50.502;8.190;2024-03-07T03:28:20;4.50;99.90
66013;DHT22;52783;50.502;8.190;2024-03-07T03:30:46;4.50;99.90
66013;DHT22;52783;50.502;8.190;2024-03-07T03:33:12;4.50;99.90
66013;DHT22;52783;50.502;8.190;2024-03-07T03:35:38;4.40;99.90
66013;DHT22;52783;50.502;8.190;2024-03-07T03:38:04;4.50;99.90
66013;DHT22;52783;50.502;8.190;2024-03-07T03:40:30;4.40;99.90
66013;DHT22;52783;50.502;8.190;2024-03-07T03:42:55;4.40;99.90
66013;DHT22;52783;50.502;8.190;2024-03-07T03:45:21;4.40;99.90
66013;DHT22;52783;50.502;8.190;2024-03-07T03:47:47;4.40;99.90
66013;DHT22;52783;50.502;8.190;2024-03-07T03:50:13;4.50;99.90
66013;DHT22;52783;50.502;8.190;2024-03-07T03:52:40;4.50;99.90
66013;DHT22;52783;50.502;8.190;2024-03-07T03:55:07;4.40;99.90
66013;DHT22;52783;50.502;8.190;2024-03-07T03:57:35;4.40;99.90
66013;DHT22;52783;50.502;8.190;2024-03-07T04:00:01;4.50;99.90
66013;DHT22;52783;50.502;8.190;2024-03-07T04:02:33;4.40;99.90
66013;DHT22;52783;50.502;8.190;2024-03-07T04:04:58;4.40;99.90
66013;DHT22;52783;50.502;8.190;2024-03-07T04:07:25;4.40;99.90
66013;DHT22;52783;50.502;8.190;2024-03-07T04:09:50;4.30;99.90
66013;DHT22;52783;50.502;8.190;2024-03-07T04:12:16;4.40;99.90
66013;DHT22;52783;50.502;8.190;2024-03-07T04:14:42;4.40;99.90
66013;DHT22;52783;50.502;8.190;2024-03-07T04:17:09;4.40;99.90
66013;DHT22;52783;50.502;8.190;2024-03-07T04:19:38;4.40;99.90
66013;DHT22;52783;50.502;8.190;2024-03-07T04:22:04;4.50;99.90
66013;DHT22;52783;50.502;8.190;2024-03-07T04:24:32;4.40;99.90
66013;DHT22;52783;50.502;8.190;2024-03-07T04:27:04;4.40;99.90
66013;DHT22;52783;50.502;8.190;2024-03-07T04:29:33;4.50;99.90
66013;DHT22;52783;50.502;8.190;2024-03-07T04:32:00;4.50;99.90
66013;DHT22;52783;50.502;8.190;2024-03-07T04:34:26;4.50;99.90
66013;DHT22;52783;50.502;8.190;2024-03-07T04:36:53;4.60;99.90
66013;DHT22;52783;50.502;8.190;2024-03-07T04:39:19;4.60;99.90
66013;DHT22;52783;50.502;8.190;2024-03-07T04:42:01;4.60;99.90
66013;DHT22;52783;50.502;8.190;2024-03-07T04:44:28;4.60;99.90
66013;DHT22;52783;50.502;8.190;2024-03-07T04:46:53;4.60;99.90
66013;DHT22;52783;50.502;8.190;2024-03-07T04:49:27;4.60;99.90
66013;DHT22;52783;50.502;8.190;2024-03-07T04:51:57;4.70;99.90
66013;DHT22;52783;50.502;8.190;2024-03-07T04:54:24;4.70;99.90
66013;DHT22;52783;50.502;8.190;2024-03-07T04:56:52;4.60;99.90
66013;DHT22;52783;50.502;8.190;2024-03-07T04:59:19;4.50;99.90
66013;DHT22;52783;50.502;8.190;2024-03-07T05:01:46;4.50;99.90
66013;DHT22;52783;50.502;8.190;2024-03-07T05:04:13;4.40;99.90
66013;DHT22;52783;50.502;8.190;2024-03-07T05:06:39;4.40;99.90
66013;DHT22;52783;50.502;8.190;2024-03-07T05:09:06;4.40;99.90
66013;DHT22;52783;50.502;8.190;2024-03-07T05:11:33;4.40;99.90
66013;DHT22;52783;50.502;8.190;2024-03-07T05:13:59;4.40;99.90
66013;DHT22;52783;50.502;8.190;2024-03-07T05:16:26;4.50;99.90
66013;DHT22;52783;50.502;8.190;2024-03-07T05:18:51;4.40;99.90
66013;DHT22;52783;50.502;8.190;2024-03-07T05:21:18;4.40;99.90
66013;DHT22;52783;50.502;8.190;2024-03-07T05:24:00;4.20;99.90
66013;DHT22;52783;50.502;8.190;2024-03-07T05:26:26;4.10;99.90
66013;DHT22;52783;50.502;8.190;2024-03-07T05:28:52;4.10;99.90
66013;DHT22;52783;50.502;8.190;2024-03-07T05:31:20;4.00;99.90
66013;DHT22;52783;50.502;8.190;2024-03-07T05:33:46;3.90;99.90
66013;DHT22;52783;50.502;8.190;2024-03-07T05:36:12;3.90;99.90
66013;DHT22;52783;50.502;8.190;2024-03-07T05:38:41;3.90;99.90
66013;DHT22;52783;50.502;8.190;2024-03-07T05:41:12;3.80;99.90
66013;DHT22;52783;50.502;8.190;2024-03-07T05:43:38;3.80;99.90
66013;DHT22;52783;50.502;8.190;2024-03-07T05:46:04;3.80;99.90
66013;DHT22;52783;50.502;8.190;2024-03-07T05:48:30;3.80;99.90
66013;DHT22;52783;50.502;8.190;2024-03-07T05:50:57;3.70;99.90
66013;DHT22;52783;50.502;8.190;2024-03-07T05:53:22;3.70;99.90
66013;DHT22;52783;50.502;8.190;2024-03-07T05:55:48;3.70;99.90
66013;DHT22;52783;50.502;8.190;2024-03-07T05:58:13;3.70;99.90
66013;DHT22;52783;50.502;8.190;2024-03-07T06:00:39;3.60;99.90
66013;DHT22;52783;50.502;8.190;2024-03-07T06:03:05;3.50;99.90
66013;DHT22;52783;50.502;8.190;2024-03-07T06:05:31;3.50;99.90
66013;DHT22;52783;50.502;8.190;2024-03-07T06:07:56;3.50;99.90
66013;DHT22;52783;50.502;8.190;2024-03-07T06:10:22;3.60;99.90
66013;DHT22;52783;50.502;8.190;2024-03-07T06:12:52;3.60;99.90
66013;DHT22;52783;50.502;8.190;2024-03-07T06:15:18;3.60;99.90
66013;DHT22;52783;50.502;8.190;2024-03-07T06:17:43;3.50;99.90
66013;DHT22;52783;50.502;8.190;2024-03-07T06:20:12;3.50;99.90
66013;DHT22;52783;50.502;8.190;2024-03-07T06:22:48;3.50;99.90
66013;DHT22;52783;50.502;8.190;2024-03-07T06:25:15;3.30;99.90
66013;DHT22;52783;50.502;8.190;2024-03-07T06:27:46;3.40;99.90
66013;DHT22;52783;50.502;8.190;2024-03-07T06:30:15;3.40;99.90
66013;DHT22;52783;50.502;8.190;2024-03-07T06:32:46;3.50;99.90
66013;DHT22;52783;50.502;8.190;2024-03-07T06:35:11;3.50;99.90
66013;DHT22;52783;50.502;8.190;2024-03-07T06:37:37;3.50;99.90
66013;DHT22;52783;50.502;8.190;2024-03-07T06:40:03;3.50;99.90
66013;DHT22;52783;50.502;8.190;2024-03-07T06:42:34;3.50;99.90
66013;DHT22;52783;50.502;8.190;2024-03-07T06:45:02;3.50;99.90
66013;DHT22;52783;50.502;8.190;2024-03-07T06:47:28;3.50;99.90
66013;DHT22;52783;50.502;8.190;2024-03-07T06:49:53;3.50;99.90
66013;DHT22;52783;50.502;8.190;2024-03-07T06:52:19;3.60;99.90
66013;DHT22;52783;50.502;8.190;2024-03-07T06:54:44;3.60;99.90
66013;DHT22;52783;50.502;8.190;2024-03-07T06:57:10;3.70;99.90
66013;DHT22;52783;50.502;8.190;2024-03-07T06:59:35;3.70;99.90
66013;DHT22;52783;50.502;8.190;2024-03-07T07:02:02;3.70;99.90
66013;DHT22;52783;50.502;8.190;2024-03-07T07:04:29;3.70;99.90
66013;DHT22;52783;50.502;8.190;2024-03-07T07:07:07;3.90;99.90
66013;DHT22;52783;50.502;8.190;2024-03-07T07:09:35;4.00;99.90
66013;DHT22;52783;50.502;8.190;2024-03-07T07:12:00;4.00;99.90
66013;DHT22;52783;50.502;8.190;2024-03-07T07:14:28;4.10;99.90
66013;DHT22;52783;50.502;8.190;2024-03-07T07:16:54;4.00;99.90
66013;DHT22;52783;50.502;8.190;2024-03-07T07:19:21;4.10;99.90
66013;DHT22;52783;50.502;8.190;2024-03-07T07:21:47;4.10;99.90
66013;DHT22;52783;50.502;8.190;2024-03-07T07:24:19;4.30;99.90
66013;DHT22;52783;50.502;8.190;2024-03-07T07:26:47;4.30;99.90
66013;DHT22;52783;50.502;8.190;2024-03-07T07:29:12;4.30;99.90
66013;DHT22;52783;50.502;8.190;2024-03-07T07:31:38;4.30;99.90
66013;DHT22;52783;50.502;8.190;2024-03-07T07:34:03;4.30;99.90
66013;DHT22;52783;50.502;8.190;2024-03-07T07:36:30;4.30;99.90
66013;DHT22;52783;50.502;8.190;2024-03-07T07:38:55;4.40;99.90
66013;DHT22;52783;50.502;8.190;2024-03-07T07:41:21;4.30;99.90
66013;DHT22;52783;50.502;8.190;2024-03-07T07:43:47;4.20;99.90
66013;DHT22;52783;50.502;8.190;2024-03-07T07:46:13;4.10;99.90
66013;DHT22;52783;50.502;8.190;2024-03-07T07:48:41;4.00;99.90
66013;DHT22;52783;50.502;8.190;2024-03-07T07:51:07;4.00;99.90
66013;DHT22;52783;50.502;8.190;2024-03-07T07:53:32;4.00;99.90
66013;DHT22;52783;50.502;8.190;2024-03-07T07:55:58;4.00;99.90
66013;DHT22;52783;50.502;8.190;2024-03-07T07:58:24;4.10;99.90
66013;DHT22;52783;50.502;8.190;2024-03-07T08:00:49;4.10;99.90
66013;DHT22;52783;50.502;8.190;2024-03-07T08:03:15;4.10;99.90
66013;DHT22;52783;50.502;8.190;2024-03-07T08:05:43;4.40;99.90
66013;DHT22;52783;50.502;8.190;2024-03-07T08:08:10;4.40;99.90
66013;DHT22;52783;50.502;8.190;2024-03-07T08:10:38;4.40;99.90
66013;DHT22;52783;50.502;8.190;2024-03-07T08:13:05;4.40;99.90
66013;DHT22;52783;50.502;8.190;2024-03-07T08:15:38;4.70;99.90
66013;DHT22;52783;50.502;8.190;2024-03-07T08:18:04;4.60;99.90
66013;DHT22;52783;50.502;8.190;2024-03-07T08:20:34;4.60;99.90
66013;DHT22;52783;50.502;8.190;2024-03-07T08:23:00;4.40;99.90
66013;DHT22;52783;50.502;8.190;2024-03-07T08:25:27;4.60;99.90
66013;DHT22;52783;50.502;8.190;2024-03-07T08:27:54;4.60;99.90
66013;DHT22;52783;50.502;8.190;2024-03-07T08:30:20;4.50;99.90
66013;DHT22;52783;50.502;8.190;2024-03-07T08:32:51;4.60;99.90
66013;DHT22;52783;50.502;8.190;2024-03-07T08:35:20;4.50;99.90
66013;DHT22;52783;50.502;8.190;2024-03-07T08:37:47;4.70;99.90
66013;DHT22;52783;50.502;8.190;2024-03-07T08:40:20;4.80;99.90
66013;DHT22;52783;50.502;8.190;2024-03-07T08:42:47;4.90;99.90
66013;DHT22;52783;50.502;8.190;2024-03-07T08:45:13;4.90;99.90
66013;DHT22;52783;50.502;8.190;2024-03-07T08:47:43;5.10;99.90
66013;DHT22;52783;50.502;8.190;2024-03-07T08:50:09;5.00;99.90
66013;DHT22;52783;50.502;8.190;2024-03-07T08:52:35;5.10;99.90
66013;DHT22;52783;50.502;8.190;2024-03-07T08:55:06;5.10;99.90
66013;DHT22;52783;50.502;8.190;2024-03-07T08:57:34;5.30;99.90
66013;DHT22;52783;50.502;8.190;2024-03-07T09:00:00;5.40;99.90
66013;DHT22;52783;50.502;8.190;2024-03-07T09:02:26;5.20;99.90
66013;DHT22;52783;50.502;8.190;2024-03-07T09:04:52;5.10;99.90
66013;DHT22;52783;50.502;8.190;2024-03-07T09:07:17;5.20;99.90
66013;DHT22;52783;50.502;8.190;2024-03-07T09:09:43;5.50;99.90
66013;DHT22;52783;50.502;8.190;2024-03-07T09:12:11;5.10;99.90
66013;DHT22;52783;50.502;8.190;2024-03-07T09:14:37;5.30;99.90
66013;DHT22;52783;50.502;8.190;2024-03-07T09:17:04;5.10;99.90
66013;DHT22;52783;50.502;8.190;2024-03-07T09:19:32;5.30;99.90
66013;DHT22;52783;50.502;8.190;2024-03-07T09:21:58;5.00;99.90
66013;DHT22;52783;50.502;8.190;2024-03-07T09:24:23;5.00;99.90
66013;DHT22;52783;50.502;8.190;2024-03-07T09:26:49;5.20;99.90
66013;DHT22;52783;50.502;8.190;2024-03-07T09:29:16;5.30;99.90
66013;DHT22;52783;50.502;8.190;2024-03-07T09:31:43;5.30;99.90
66013;DHT22;52783;50.502;8.190;2024-03-07T09:34:08;5.40;99.90
66013;DHT22;52783;50.502;8.190;2024-03-07T09:36:34;5.40;99.90
66013;DHT22;52783;50.502;8.190;2024-03-07T09:39:00;5.50;99.90
66013;DHT22;52783;50.502;8.190;2024-03-07T09:41:26;5.40;99.90
66013;DHT22;52783;50.502;8.190;2024-03-07T09:43:52;5.60;99.90
66013;DHT22;52783;50.502;8.190;2024-03-07T09:46:23;5.40;99.90
66013;DHT22;52783;50.502;8.190;2024-03-07T09:48:50;5.50;99.90
66013;DHT22;52783;50.502;8.190;2024-03-07T09:51:20;5.70;99.90
66013;DHT22;52783;50.502;8.190;2024-03-07T09:53:50;5.70;99.90
66013;DHT22;52783;50.502;8.190;2024-03-07T09:56:21;5.70;99.90
66013;DHT22;52783;50.502;8.190;2024-03-07T09:58:50;5.80;99.90
66013;DHT22;52783;50.502;8.190;2024-03-07T10:01:20;6.10;99.90
66013;DHT22;52783;50.502;8.190;2024-03-07T10:03:47;5.90;99.90
66013;DHT22;52783;50.502;8.190;2024-03-07T10:06:13;5.60;99.90
66013;DHT22;52783;50.502;8.190;2024-03-07T10:08:41;5.50;99.90
66013;DHT22;52783;50.502;8.190;2024-03-07T10:11:07;5.60;99.90
66013;DHT22;52783;50.502;8.190;2024-03-07T10:13:34;5.80;99.90
66013;DHT22;52783;50.502;8.190;2024-03-07T10:16:01;5.70;99.90
66013;DHT22;52783;50.502;8.190;2024-03-07T10:18:27;6.00;99.90
66013;DHT22;52783;50.502;8.190;2024-03-07T10:20:56;5.90;99.90
66013;DHT22;52783;50.502;8.190;2024-03-07T10:23:22;6.30;99.90
66013;DHT22;52783;50.502;8.190;2024-03-07T10:25:48;6.10;99.90
66013;DHT22;52783;50.502;8.190;2024-03-07T10:28:16;6.00;99.90
66013;DHT22;52783;50.502;8.190;2024-03-07T10:30:43;6.10;99.90
66013;DHT22;52783;50.502;8.190;2024-03-07T10:33:13;6.20;99.90
66013;DHT22;52783;50.502;8.190;2024-03-07T10:35:38;6.30;99.90
66013;DHT22;52783;50.502;8.190;2024-03-07T10:38:04;6.20;99.90
66013;DHT22;52783;50.502;8.190;2024-03-07T10:40:33;6.20;99.90
66013;DHT22;52783;50.502;8.190;2024-03-07T10:43:01;6.20;99.90
66013;DHT22;52783;50.502;8.190;2024-03-07T10:45:43;6.10;99.90
66013;DHT22;52783;50.502;8.190;2024-03-07T10:48:11;5.90;99.90
66013;DHT22;52783;50.502;8.190;2024-03-07T10:50:54;5.80;99.90
66013;DHT22;52783;50.502;8.190;2024-03-07T10:53:35;5.80;99.90
66013;DHT22;52783;50.502;8.190;2024-03-07T10:59:16;6.10;99.90
66013;DHT22;52783;50.502;8.190;2024-03-07T11:02:07;6.60;99.90
66013;DHT22;52783;50.502;8.190;2024-03-07T11:04:41;6.20;99.90
66013;DHT22;52783;50.502;8.190;2024-03-07T11:07:08;6.40;99.90
66013;DHT22;52783;50.502;8.190;2024-03-07T11:09:36;6.30;99.90
66013;DHT22;52783;50.502;8.190;2024-03-07T11:12:03;5.90;99.90
66013;DHT22;52783;50.502;8.190;2024-03-07T11:14:30;6.10;99.90
66013;DHT22;52783;50.502;8.190;2024-03-07T11:16:57;6.20;99.90
66013;DHT22;52783;50.502;8.190;2024-03-07T11:19:31;6.10;99.90
66013;DHT22;52783;50.502;8.190;2024-03-07T11:21:57;6.10;99.90
66013;DHT22;52783;50.502;8.190;2024-03-07T11:24:31;6.30;99.90
66013;DHT22;52783;50.502;8.190;2024-03-07T11:26:58;6.10;99.90
66013;DHT22;52783;50.502;8.190;2024-03-07T11:29:44;6.20;99.90
66013;DHT22;52783;50.502;8.190;2024-03-07T11:32:15;6.50;99.90
66013;DHT22;52783;50.502;8.190;2024-03-07T11:34:42;6.30;99.90
66013;DHT22;52783;50.502;8.190;2024-03-07T11:37:20;6.60;99.90
66013;DHT22;52783;50.502;8.190;2024-03-07T11:40:02;6.70;99.90
66013;DHT22;52783;50.502;8.190;2024-03-07T11:42:33;6.60;99.90
66013;DHT22;52783;50.502;8.190;2024-03-07T11:45:02;6.50;99.90
66013;DHT22;52783;50.502;8.190;2024-03-07T11:47:38;6.60;99.90
66013;DHT22;52783;50.502;8.190;2024-03-07T11:50:08;6.70;99.90
66013;DHT22;52783;50.502;8.190;2024-03-07T11:52:39;6.60;99.90
66013;DHT22;52783;50.502;8.190;2024-03-07T11:55:09;6.50;99.90
66013;DHT22;52783;50.502;8.190;2024-03-07T11:57:36;6.80;99.90
66013;DHT22;52783;50.502;8.190;2024-03-07T12:00:04;6.90;99.90
66013;DHT22;52783;50.502;8.190;2024-03-07T12:02:39;7.10;99.90
66013;DHT22;52783;50.502;8.190;2024-03-07T12:05:05;7.20;99.90
66013;DHT22;52783;50.502;8.190;2024-03-07T12:07:32;7.20;99.90
66013;DHT22;52783;50.502;8.190;2024-03-07T12:09:59;7.60;99.90
66013;DHT22;52783;50.502;8.190;2024-03-07T12:12:25;7.50;99.90
66013;DHT22;52783;50.502;8.190;2024-03-07T12:14:53;7.40;99.90
66013;DHT22;52783;50.502;8.190;2024-03-07T12:17:22;7.40;99.90
66013;DHT22;52783;50.502;8.190;2024-03-07T12:19:49;7.40;99.90
66013;DHT22;52783;50.502;8.190;2024-03-07T12:22:19;7.70;99.90
66013;DHT22;52783;50.502;8.190;2024-03-07T12:25:01;7.40;99.90
66013;DHT22;52783;50.502;8.190;2024-03-07T12:27:28;7.50;99.90
66013;DHT22;52783;50.502;8.190;2024-03-07T12:29:54;7.40;99.90
66013;DHT22;52783;50.502;8.190;2024-03-07T12:32:20;7.40;99.90
66013;DHT22;52783;50.502;8.190;2024-03-07T12:34:46;7.40;99.90
66013;DHT22;52783;50.502;8.190;2024-03-07T12:37:15;7.70;99.90
66013;DHT22;52783;50.502;8.190;2024-03-07T12:39:42;7.50;99.90
66013;DHT22;52783;50.502;8.190;2024-03-07T12:42:18;7.50;99.90
66013;DHT22;52783;50.502;8.190;2024-03-07T12:44:45;7.30;99.90
66013;DHT22;52783;50.502;8.190;2024-03-07T12:47:15;7.40;99.90
66013;DHT22;52783;50.502;8.190;2024-03-07T12:49:42;7.20;99.90
66013;DHT22;52783;50.502;8.190;2024-03-07T12:52:07;7.50;99.90
66013;DHT22;52783;50.502;8.190;2024-03-07T12:54:36;7.60;99.90
66013;DHT22;52783;50.502;8.190;2024-03-07T12:57:06;7.50;99.90
66013;DHT22;52783;50.502;8.190;2024-03-07T12:59:40;7.70;99.90
66013;DHT22;52783;50.502;8.190;2024-03-07T13:02:10;7.50;99.90
66013;DHT22;52783;50.502;8.190;2024-03-07T13:04:36;7.40;99.90
66013;DHT22;52783;50.502;8.190;2024-03-07T13:07:06;7.50;99.90
66013;DHT22;52783;50.502;8.190;2024-03-07T13:09:32;7.40;99.90
66013;DHT22;52783;50.502;8.190;2024-03-07T13:11:59;7.70;99.90
66013;DHT22;52783;50.502;8.190;2024-03-07T13:14:31;7.80;99.90
66013;DHT22;52783;50.502;8.190;2024-03-07T13:17:02;7.90;99.90
66013;DHT22;52783;50.502;8.190;2024-03-07T13:19:30;7.90;99.90
66013;DHT22;52783;50.502;8.190;2024-03-07T13:21:56;7.80;99.90
66013;DHT22;52783;50.502;8.190;2024-03-07T13:24:22;7.90;99.90
66013;DHT22;52783;50.502;8.190;2024-03-07T13:26:48;7.80;99.90
66013;DHT22;52783;50.502;8.190;2024-03-07T13:29:14;7.90;99.90
66013;DHT22;52783;50.502;8.190;2024-03-07T13:31:42;7.90;99.90
66013;DHT22;52783;50.502;8.190;2024-03-07T13:34:08;8.00;99.90
66013;DHT22;52783;50.502;8.190;2024-03-07T13:36:44;7.70;99.90
66013;DHT22;52783;50.502;8.190;2024-03-07T13:39:11;7.50;99.90
66013;DHT22;52783;50.502;8.190;2024-03-07T13:41:46;7.80;99.90
66013;DHT22;52783;50.502;8.190;2024-03-07T13:44:14;7.90;99.90
66013;DHT22;52783;50.502;8.190;2024-03-07T13:46:39;8.00;99.90
66013;DHT22;52783;50.502;8.190;2024-03-07T13:49:05;8.20;99.90
66013;DHT22;52783;50.502;8.190;2024-03-07T13:51:39;7.60;99.90
66013;DHT22;52783;50.502;8.190;2024-03-07T13:54:18;7.40;99.90
66013;DHT22;52783;50.502;8.190;2024-03-07T13:57:15;7.30;99.90
66013;DHT22;52783;50.502;8.190;2024-03-07T14:03:15;8.00;99.90
66013;DHT22;52783;50.502;8.190;2024-03-07T14:06:03;7.90;99.90
66013;DHT22;52783;50.502;8.190;2024-03-07T14:15:04;7.50;99.90
66013;DHT22;52783;50.502;8.190;2024-03-07T14:20:54;7.80;99.90
66013;DHT22;52783;50.502;8.190;2024-03-07T14:31:47;7.60;99.90
66013;DHT22;52783;50.502;8.190;2024-03-07T14:36:57;7.50;99.90
66013;DHT22;52783;50.502;8.190;2024-03-07T14:39:27;7.70;99.90
66013;DHT22;52783;50.502;8.190;2024-03-07T14:42:01;7.70;99.90
66013;DHT22;52783;50.502;8.190;2024-03-07T14:44:28;8.00;99.90
66013;DHT22;52783;50.502;8.190;2024-03-07T14:47:00;7.80;99.90
66013;DHT22;52783;50.502;8.190;2024-03-07T14:49:27;7.70;99.90
66013;DHT22;52783;50.502;8.190;2024-03-07T14:51:54;7.60;99.90
66013;DHT22;52783;50.502;8.190;2024-03-07T14:54:22;7.60;99.90
66013;DHT22;52783;50.502;8.190;2024-03-07T14:56:48;7.60;99.90
66013;DHT22;52783;50.502;8.190;2024-03-07T14:59:13;7.50;99.90
66013;DHT22;52783;50.502;8.190;2024-03-07T15:01:39;7.50;99.90
66013;DHT22;52783;50.502;8.190;2024-03-07T15:04:05;7.50;99.90
66013;DHT22;52783;50.502;8.190;2024-03-07T15:06:33;7.70;99.90
66013;DHT22;52783;50.502;8.190;2024-03-07T15:08:59;7.70;99.90
66013;DHT22;52783;50.502;8.190;2024-03-07T15:11:34;7.50;99.90
66013;DHT22;52783;50.502;8.190;2024-03-07T15:14:00;7.70;99.90
66013;DHT22;52783;50.502;8.190;2024-03-07T15:16:36;7.70;99.90
66013;DHT22;52783;50.502;8.190;2024-03-07T15:19:06;7.80;99.90
66013;DHT22;52783;50.502;8.190;2024-03-07T15:21:38;7.70;99.90
66013;DHT22;52783;50.502;8.190;2024-03-07T15:24:04;7.70;99.90
66013;DHT22;52783;50.502;8.190;2024-03-07T15:26:30;7.90;99.90
66013;DHT22;52783;50.502;8.190;2024-03-07T15:29:00;7.70;99.90
66013;DHT22;52783;50.502;8.190;2024-03-07T15:31:29;7.70;99.90
66013;DHT22;52783;50.502;8.190;2024-03-07T15:33:54;7.80;99.90
66013;DHT22;52783;50.502;8.190;2024-03-07T15:36:21;7.90;99.90
66013;DHT22;52783;50.502;8.190;2024-03-07T15:38:47;7.80;99.90
66013;DHT22;52783;50.502;8.190;2024-03-07T15:41:13;7.80;99.90
66013;DHT22;52783;50.502;8.190;2024-03-07T15:43:39;7.70;99.90
66013;DHT22;52783;50.502;8.190;2024-03-07T15:46:11;7.80;99.90
66013;DHT22;52783;50.502;8.190;2024-03-07T15:48:38;7.90;99.90
66013;DHT22;52783;50.502;8.190;2024-03-07T15:51:04;8.00;99.90
66013;DHT22;52783;50.502;8.190;2024-03-07T15:53:30;7.90;99.90
66013;DHT22;52783;50.502;8.190;2024-03-07T15:55:59;7.90;99.90
66013;DHT22;52783;50.502;8.190;2024-03-07T15:58:25;7.70;99.90
66013;DHT22;52783;50.502;8.190;2024-03-07T16:00:50;7.60;99.90
66013;DHT22;52783;50.502;8.190;2024-03-07T16:03:16;7.50;99.90
66013;DHT22;52783;50.502;8.190;2024-03-07T16:05:42;7.60;99.90
66013;DHT22;52783;50.502;8.190;2024-03-07T16:08:10;7.50;99.90
66013;DHT22;52783;50.502;8.190;2024-03-07T16:10:40;7.60;99.90
66013;DHT22;52783;50.502;8.190;2024-03-07T16:13:10;7.70;99.90
66013;DHT22;52783;50.502;8.190;2024-03-07T16:15:40;7.40;99.90